sensor_id;sensor_type;location;lat;lon;timestamp;P1;durP1;ratioP1;P2;durP2;ratioP2
14187;SDS011;7175;51.978;5.330;2023-04-21T00:01:09;96.07;;;90.13;;
14187;SDS011;7175;51.978;5.330;2023-04-21T00:03:39;98.60;;;92.60;;
14187;SDS011;7175;51.978;5.330;2023-04-21T00:06:08;99.83;;;93.63;;
14187;SDS011;7175;51.978;5.330;2023-04-21T00:08:36;101.83;;;95.47;;
14187;SDS011;7175;51.978;5.330;2023-04-21T00:11:06;104.17;;;97.57;;
14187;SDS011;7175;51.978;5.330;2023-04-21T00:13:34;108.43;;;99.30;;
14187;SDS011;7175;51.978;5.330;2023-04-21T00:16:03;101.20;;;94.70;;
14187;SDS011;7175;51.978;5.330;2023-04-21T00:18:32;108.03;;;101.20;;
14187;SDS011;7175;51.978;5.330;2023-04-21T00:21:02;104.57;;;97.77;;
14187;SDS011;7175;51.978;5.330;2023-04-21T00:23:30;105.07;;;98.17;;
14187;SDS011;7175;51.978;5.330;2023-04-21T00:25:58;106.07;;;99.17;;
14187;SDS011;7175;51.978;5.330;2023-04-21T00:28:28;108.57;;;101.50;;
14187;SDS011;7175;51.978;5.330;2023-04-21T00:30:56;110.07;;;102.67;;
14187;SDS011;7175;51.978;5.330;2023-04-21T00:33:25;109.97;;;102.47;;
14187;SDS011;7175;51.978;5.330;2023-04-21T00:35:53;109.30;;;101.70;;
14187;SDS011;7175;51.978;5.330;2023-04-21T00:38:23;111.03;;;103.47;;
14187;SDS011;7175;51.978;5.330;2023-04-21T00:40:51;111.60;;;103.80;;
14187;SDS011;7175;51.978;5.330;2023-04-21T00:43:19;111.50;;;103.70;;
14187;SDS011;7175;51.978;5.330;2023-04-21T00:45:48;112.17;;;103.90;;
14187;SDS011;7175;51.978;5.330;2023-04-21T00:48:16;111.57;;;103.63;;
14187;SDS011;7175;51.978;5.330;2023-04-21T00:50:44;113.63;;;105.53;;
14187;SDS011;7175;51.978;5.330;2023-04-21T00:53:12;112.03;;;104.03;;
14187;SDS011;7175;51.978;5.330;2023-04-21T00:55:43;112.83;;;104.87;;
14187;SDS011;7175;51.978;5.330;2023-04-21T00:58:12;113.17;;;105.00;;
14187;SDS011;7175;51.978;5.330;2023-04-21T01:00:40;113.77;;;105.47;;
14187;SDS011;7175;51.978;5.330;2023-04-21T01:03:10;112.67;;;104.47;;
14187;SDS011;7175;51.978;5.330;2023-04-21T01:05:38;113.13;;;104.93;;
14187;SDS011;7175;51.978;5.330;2023-04-21T01:08:07;115.20;;;106.70;;
14187;SDS011;7175;51.978;5.330;2023-04-21T01:10:36;114.30;;;105.70;;
14187;SDS011;7175;51.978;5.330;2023-04-21T01:13:05;112.80;;;104.50;;
14187;SDS011;7175;51.978;5.330;2023-04-21T01:15:33;111.00;;;102.70;;
14187;SDS011;7175;51.978;5.330;2023-04-21T01:18:01;113.30;;;104.60;;
14187;SDS011;7175;51.978;5.330;2023-04-21T01:20:30;113.90;;;105.40;;
14187;SDS011;7175;51.978;5.330;2023-04-21T01:22:59;113.30;;;104.70;;
14187;SDS011;7175;51.978;5.330;2023-04-21T01:25:28;115.53;;;106.73;;
14187;SDS011;7175;51.978;5.330;2023-04-21T01:27:56;117.03;;;108.03;;
14187;SDS011;7175;51.978;5.330;2023-04-21T01:30:24;119.67;;;110.57;;
14187;SDS011;7175;51.978;5.330;2023-04-21T01:32:52;120.47;;;111.17;;
14187;SDS011;7175;51.978;5.330;2023-04-21T01:35:20;117.10;;;108.20;;
14187;SDS011;7175;51.978;5.330;2023-04-21T01:37:48;118.10;;;108.90;;
14187;SDS011;7175;51.978;5.330;2023-04-21T01:40:18;120.00;;;110.57;;
14187;SDS011;7175;51.978;5.330;2023-04-21T01:42:46;116.87;;;107.87;;
14187;SDS011;7175;51.978;5.330;2023-04-21T01:45:14;119.20;;;109.90;;
14187;SDS011;7175;51.978;5.330;2023-04-21T01:47:42;117.87;;;108.87;;
14187;SDS011;7175;51.978;5.330;2023-04-21T01:50:12;120.13;;;110.83;;
14187;SDS011;7175;51.978;5.330;2023-04-21T01:52:40;120.67;;;111.40;;
14187;SDS011;7175;51.978;5.330;2023-04-21T01:55:08;118.27;;;109.07;;
14187;SDS011;7175;51.978;5.330;2023-04-21T01:57:38;122.40;;;113.30;;
14187;SDS011;7175;51.978;5.330;2023-04-21T02:00:07;122.80;;;113.80;;
14187;SDS011;7175;51.978;5.330;2023-04-21T02:02:35;121.50;;;112.50;;
14187;SDS011;7175;51.978;5.330;2023-04-21T02:05:04;122.83;;;113.83;;
14187;SDS011;7175;51.978;5.330;2023-04-21T02:07:33;125.57;;;116.37;;
14187;SDS011;7175;51.978;5.330;2023-04-21T02:10:02;124.17;;;114.97;;
14187;SDS011;7175;51.978;5.330;2023-04-21T02:12:31;121.80;;;112.83;;
14187;SDS011;7175;51.978;5.330;2023-04-21T02:15:00;124.17;;;114.67;;
14187;SDS011;7175;51.978;5.330;2023-04-21T02:17:28;123.23;;;114.13;;
14187;SDS011;7175;51.978;5.330;2023-04-21T02:19:57;124.80;;;115.53;;
14187;SDS011;7175;51.978;5.330;2023-04-21T02:22:27;127.40;;;118.00;;
14187;SDS011;7175;51.978;5.330;2023-04-21T02:24:55;128.97;;;119.37;;
14187;SDS011;7175;51.978;5.330;2023-04-21T02:27:23;128.53;;;119.03;;
14187;SDS011;7175;51.978;5.330;2023-04-21T02:29:51;128.57;;;119.03;;
14187;SDS011;7175;51.978;5.330;2023-04-21T02:32:21;129.67;;;120.07;;
14187;SDS011;7175;51.978;5.330;2023-04-21T02:34:51;130.60;;;120.90;;
14187;SDS011;7175;51.978;5.330;2023-04-21T02:37:19;131.30;;;121.50;;
14187;SDS011;7175;51.978;5.330;2023-04-21T02:39:48;134.10;;;124.20;;
14187;SDS011;7175;51.978;5.330;2023-04-21T02:42:16;131.60;;;121.90;;
14187;SDS011;7175;51.978;5.330;2023-04-21T02:44:44;133.77;;;123.87;;
14187;SDS011;7175;51.978;5.330;2023-04-21T02:47:13;133.13;;;123.20;;
14187;SDS011;7175;51.978;5.330;2023-04-21T02:49:43;132.77;;;122.87;;
14187;SDS011;7175;51.978;5.330;2023-04-21T02:52:11;131.97;;;122.30;;
14187;SDS011;7175;51.978;5.330;2023-04-21T02:54:40;134.93;;;125.03;;
14187;SDS011;7175;51.978;5.330;2023-04-21T02:57:08;132.67;;;122.77;;
14187;SDS011;7175;51.978;5.330;2023-04-21T02:59:36;133.03;;;123.27;;
14187;SDS011;7175;51.978;5.330;2023-04-21T03:02:04;130.00;;;119.97;;
14187;SDS011;7175;51.978;5.330;2023-04-21T03:04:32;127.73;;;118.23;;
14187;SDS011;7175;51.978;5.330;2023-04-21T03:07:02;128.60;;;118.93;;
14187;SDS011;7175;51.978;5.330;2023-04-21T03:09:30;132.80;;;122.90;;
14187;SDS011;7175;51.978;5.330;2023-04-21T03:11:58;127.17;;;117.70;;
14187;SDS011;7175;51.978;5.330;2023-04-21T03:14:26;131.87;;;121.97;;
14187;SDS011;7175;51.978;5.330;2023-04-21T03:16:55;129.77;;;120.20;;
14187;SDS011;7175;51.978;5.330;2023-04-21T03:19:23;132.73;;;122.90;;
14187;SDS011;7175;51.978;5.330;2023-04-21T03:21:51;129.60;;;120.30;;
14187;SDS011;7175;51.978;5.330;2023-04-21T03:24:20;131.50;;;122.00;;
14187;SDS011;7175;51.978;5.330;2023-04-21T03:26:48;132.43;;;122.53;;
14187;SDS011;7175;51.978;5.330;2023-04-21T03:29:16;130.97;;;120.87;;
14187;SDS011;7175;51.978;5.330;2023-04-21T03:31:45;136.67;;;126.37;;
14187;SDS011;7175;51.978;5.330;2023-04-21T03:34:13;130.80;;;121.10;;
14187;SDS011;7175;51.978;5.330;2023-04-21T03:36:42;130.17;;;120.67;;
14187;SDS011;7175;51.978;5.330;2023-04-21T03:39:10;131.03;;;121.43;;
14187;SDS011;7175;51.978;5.330;2023-04-21T03:41:47;128.10;;;118.63;;
14187;SDS011;7175;51.978;5.330;2023-04-21T03:44:15;129.47;;;119.93;;
14187;SDS011;7175;51.978;5.330;2023-04-21T03:46:43;131.67;;;122.07;;
14187;SDS011;7175;51.978;5.330;2023-04-21T03:49:11;126.73;;;117.63;;
14187;SDS011;7175;51.978;5.330;2023-04-21T03:51:39;131.10;;;121.50;;
14187;SDS011;7175;51.978;5.330;2023-04-21T03:54:07;130.67;;;121.27;;
14187;SDS011;7175;51.978;5.330;2023-04-21T03:56:35;132.73;;;123.33;;
14187;SDS011;7175;51.978;5.330;2023-04-21T03:59:05;134.57;;;124.97;;
14187;SDS011;7175;51.978;5.330;2023-04-21T04:01:33;134.67;;;125.07;;
14187;SDS011;7175;51.978;5.330;2023-04-21T04:04:02;130.83;;;121.13;;
14187;SDS011;7175;51.978;5.330;2023-04-21T04:06:30;128.93;;;119.43;;
14187;SDS011;7175;51.978;5.330;2023-04-21T04:08:59;125.77;;;116.20;;
14187;SDS011;7175;51.978;5.330;2023-04-21T04:11:30;127.47;;;118.07;;
14187;SDS011;7175;51.978;5.330;2023-04-21T04:13:58;126.83;;;117.37;;
14187;SDS011;7175;51.978;5.330;2023-04-21T04:16:28;134.67;;;124.53;;
14187;SDS011;7175;51.978;5.330;2023-04-21T04:18:57;130.33;;;120.90;;
14187;SDS011;7175;51.978;5.330;2023-04-21T04:21:25;129.60;;;120.10;;
14187;SDS011;7175;51.978;5.330;2023-04-21T04:23:54;129.93;;;120.13;;
14187;SDS011;7175;51.978;5.330;2023-04-21T04:26:22;124.07;;;115.07;;
14187;SDS011;7175;51.978;5.330;2023-04-21T04:28:51;132.87;;;123.17;;
14187;SDS011;7175;51.978;5.330;2023-04-21T04:31:21;132.33;;;122.23;;
14187;SDS011;7175;51.978;5.330;2023-04-21T04:33:52;134.13;;;123.77;;
14187;SDS011;7175;51.978;5.330;2023-04-21T04:36:21;134.83;;;124.63;;
14187;SDS011;7175;51.978;5.330;2023-04-21T04:38:49;135.50;;;125.30;;
14187;SDS011;7175;51.978;5.330;2023-04-21T04:41:18;137.17;;;126.73;;
14187;SDS011;7175;51.978;5.330;2023-04-21T04:43:46;134.37;;;124.37;;
14187;SDS011;7175;51.978;5.330;2023-04-21T04:46:14;138.23;;;127.97;;
14187;SDS011;7175;51.978;5.330;2023-04-21T04:48:42;135.60;;;125.47;;
14187;SDS011;7175;51.978;5.330;2023-04-21T04:51:12;137.87;;;127.73;;
14187;SDS011;7175;51.978;5.330;2023-04-21T04:53:40;132.17;;;121.97;;
14187;SDS011;7175;51.978;5.330;2023-04-21T04:56:08;131.00;;;120.67;;
14187;SDS011;7175;51.978;5.330;2023-04-21T04:58:36;136.83;;;126.27;;
14187;SDS011;7175;51.978;5.330;2023-04-21T05:03:39;134.07;;;123.47;;
14187;SDS011;7175;51.978;5.330;2023-04-21T05:06:08;137.90;;;127.00;;
14187;SDS011;7175;51.978;5.330;2023-04-21T05:08:37;137.73;;;126.97;;
14187;SDS011;7175;51.978;5.330;2023-04-21T05:11:06;140.33;;;129.43;;
14187;SDS011;7175;51.978;5.330;2023-04-21T05:13:35;134.77;;;124.17;;
14187;SDS011;7175;51.978;5.330;2023-04-21T05:16:06;137.20;;;126.50;;
14187;SDS011;7175;51.978;5.330;2023-04-21T05:18:35;137.67;;;125.80;;
14187;SDS011;7175;51.978;5.330;2023-04-21T05:21:04;140.83;;;129.53;;
14187;SDS011;7175;51.978;5.330;2023-04-21T05:23:32;134.63;;;123.83;;
14187;SDS011;7175;51.978;5.330;2023-04-21T05:26:02;137.10;;;126.23;;
14187;SDS011;7175;51.978;5.330;2023-04-21T05:28:30;140.13;;;129.13;;
14187;SDS011;7175;51.978;5.330;2023-04-21T05:30:58;141.67;;;130.37;;
14187;SDS011;7175;51.978;5.330;2023-04-21T05:33:27;140.60;;;129.70;;
14187;SDS011;7175;51.978;5.330;2023-04-21T05:35:57;146.43;;;135.13;;
14187;SDS011;7175;51.978;5.330;2023-04-21T05:38:25;142.83;;;131.67;;
14187;SDS011;7175;51.978;5.330;2023-04-21T05:40:53;140.27;;;129.47;;
14187;SDS011;7175;51.978;5.330;2023-04-21T05:43:23;142.50;;;131.60;;
14187;SDS011;7175;51.978;5.330;2023-04-21T05:45:51;138.43;;;127.90;;
14187;SDS011;7175;51.978;5.330;2023-04-21T05:48:20;142.43;;;131.73;;
14187;SDS011;7175;51.978;5.330;2023-04-21T05:50:48;142.37;;;131.67;;
14187;SDS011;7175;51.978;5.330;2023-04-21T05:53:17;135.73;;;125.40;;
14187;SDS011;7175;51.978;5.330;2023-04-21T05:55:45;142.33;;;131.63;;
14187;SDS011;7175;51.978;5.330;2023-04-21T05:58:13;138.00;;;127.50;;
14187;SDS011;7175;51.978;5.330;2023-04-21T06:00:42;136.13;;;125.83;;
14187;SDS011;7175;51.978;5.330;2023-04-21T06:03:14;139.20;;;128.80;;
14187;SDS011;7175;51.978;5.330;2023-04-21T06:05:42;134.30;;;124.10;;
14187;SDS011;7175;51.978;5.330;2023-04-21T06:08:11;140.87;;;130.40;;
14187;SDS011;7175;51.978;5.330;2023-04-21T06:10:39;143.77;;;133.07;;
14187;SDS011;7175;51.978;5.330;2023-04-21T06:13:08;134.20;;;124.10;;
14187;SDS011;7175;51.978;5.330;2023-04-21T06:15:36;134.23;;;124.13;;
14187;SDS011;7175;51.978;5.330;2023-04-21T06:18:06;136.90;;;126.70;;
14187;SDS011;7175;51.978;5.330;2023-04-21T06:20:34;143.17;;;132.77;;
14187;SDS011;7175;51.978;5.330;2023-04-21T06:23:02;135.90;;;125.90;;
14187;SDS011;7175;51.978;5.330;2023-04-21T06:25:30;137.97;;;127.97;;
14187;SDS011;7175;51.978;5.330;2023-04-21T06:27:59;138.00;;;127.90;;
14187;SDS011;7175;51.978;5.330;2023-04-21T06:30:27;139.63;;;129.23;;
14187;SDS011;7175;51.978;5.330;2023-04-21T06:32:55;133.77;;;123.87;;
14187;SDS011;7175;51.978;5.330;2023-04-21T06:35:25;133.77;;;123.77;;
14187;SDS011;7175;51.978;5.330;2023-04-21T06:37:53;127.07;;;117.33;;
14187;SDS011;7175;51.978;5.330;2023-04-21T06:40:21;127.57;;;117.93;;
14187;SDS011;7175;51.978;5.330;2023-04-21T06:42:50;127.83;;;118.17;;
14187;SDS011;7175;51.978;5.330;2023-04-21T06:45:18;134.80;;;125.10;;
14187;SDS011;7175;51.978;5.330;2023-04-21T06:47:46;134.10;;;124.10;;
14187;SDS011;7175;51.978;5.330;2023-04-21T06:50:14;134.20;;;124.40;;
14187;SDS011;7175;51.978;5.330;2023-04-21T06:52:44;132.97;;;122.83;;
14187;SDS011;7175;51.978;5.330;2023-04-21T06:55:12;136.13;;;126.13;;
14187;SDS011;7175;51.978;5.330;2023-04-21T06:57:40;119.83;;;110.77;;
14187;SDS011;7175;51.978;5.330;2023-04-21T07:00:09;115.60;;;107.00;;
14187;SDS011;7175;51.978;5.330;2023-04-21T07:02:38;119.57;;;110.77;;
14187;SDS011;7175;51.978;5.330;2023-04-21T07:05:07;126.67;;;117.20;;
14187;SDS011;7175;51.978;5.330;2023-04-21T07:07:35;125.77;;;116.53;;
14187;SDS011;7175;51.978;5.330;2023-04-21T07:10:05;114.80;;;106.30;;
14187;SDS011;7175;51.978;5.330;2023-04-21T07:12:34;119.30;;;110.50;;
14187;SDS011;7175;51.978;5.330;2023-04-21T07:15:02;109.13;;;101.23;;
14187;SDS011;7175;51.978;5.330;2023-04-21T07:17:31;108.70;;;100.97;;
14187;SDS011;7175;51.978;5.330;2023-04-21T07:20:00;104.77;;;97.27;;
14187;SDS011;7175;51.978;5.330;2023-04-21T07:22:28;94.67;;;88.10;;
14187;SDS011;7175;51.978;5.330;2023-04-21T07:24:57;90.07;;;84.17;;
14187;SDS011;7175;51.978;5.330;2023-04-21T07:27:26;85.53;;;79.83;;
14187;SDS011;7175;51.978;5.330;2023-04-21T07:29:55;83.40;;;77.70;;
14187;SDS011;7175;51.978;5.330;2023-04-21T07:32:23;71.20;;;66.30;;
14187;SDS011;7175;51.978;5.330;2023-04-21T07:34:52;53.40;;;49.67;;
14187;SDS011;7175;51.978;5.330;2023-04-21T07:37:20;49.60;;;46.20;;
14187;SDS011;7175;51.978;5.330;2023-04-21T07:39:50;40.30;;;37.30;;
14187;SDS011;7175;51.978;5.330;2023-04-21T07:42:18;43.53;;;40.40;;
14187;SDS011;7175;51.978;5.330;2023-04-21T07:44:47;49.40;;;45.90;;
14187;SDS011;7175;51.978;5.330;2023-04-21T07:47:16;44.30;;;41.03;;
14187;SDS011;7175;51.978;5.330;2023-04-21T07:49:44;42.80;;;39.60;;
14187;SDS011;7175;51.978;5.330;2023-04-21T07:52:12;45.00;;;41.70;;
14187;SDS011;7175;51.978;5.330;2023-04-21T07:54:40;40.83;;;37.93;;
14187;SDS011;7175;51.978;5.330;2023-04-21T07:57:08;41.40;;;38.50;;
14187;SDS011;7175;51.978;5.330;2023-04-21T07:59:36;36.67;;;34.03;;
14187;SDS011;7175;51.978;5.330;2023-04-21T08:02:06;35.83;;;33.13;;
14187;SDS011;7175;51.978;5.330;2023-04-21T08:04:35;32.47;;;29.73;;
14187;SDS011;7175;51.978;5.330;2023-04-21T08:07:03;32.70;;;29.90;;
14187;SDS011;7175;51.978;5.330;2023-04-21T08:09:32;27.00;;;24.80;;
14187;SDS011;7175;51.978;5.330;2023-04-21T08:12:00;27.23;;;25.10;;
14187;SDS011;7175;51.978;5.330;2023-04-21T08:14:29;26.97;;;24.77;;
14187;SDS011;7175;51.978;5.330;2023-04-21T08:16:57;26.30;;;24.20;;
14187;SDS011;7175;51.978;5.330;2023-04-21T08:19:27;27.13;;;24.83;;
14187;SDS011;7175;51.978;5.330;2023-04-21T08:21:55;27.90;;;25.70;;
14187;SDS011;7175;51.978;5.330;2023-04-21T08:24:24;26.30;;;24.20;;
14187;SDS011;7175;51.978;5.330;2023-04-21T08:26:52;27.77;;;25.57;;
14187;SDS011;7175;51.978;5.330;2023-04-21T08:29:20;26.70;;;24.60;;
14187;SDS011;7175;51.978;5.330;2023-04-21T08:31:48;25.43;;;23.43;;
14187;SDS011;7175;51.978;5.330;2023-04-21T08:34:17;23.80;;;21.90;;
14187;SDS011;7175;51.978;5.330;2023-04-21T08:36:48;24.83;;;22.93;;
14187;SDS011;7175;51.978;5.330;2023-04-21T08:39:16;24.60;;;22.70;;
14187;SDS011;7175;51.978;5.330;2023-04-21T08:41:45;25.63;;;23.63;;
14187;SDS011;7175;51.978;5.330;2023-04-21T08:44:14;26.40;;;23.80;;
14187;SDS011;7175;51.978;5.330;2023-04-21T08:46:45;24.50;;;22.60;;
14187;SDS011;7175;51.978;5.330;2023-04-21T08:49:18;24.70;;;22.80;;
14187;SDS011;7175;51.978;5.330;2023-04-21T08:51:48;23.57;;;21.77;;
14187;SDS011;7175;51.978;5.330;2023-04-21T08:54:17;25.13;;;23.03;;
14187;SDS011;7175;51.978;5.330;2023-04-21T08:56:45;26.73;;;24.40;;
14187;SDS011;7175;51.978;5.330;2023-04-21T08:59:14;24.17;;;22.27;;
14187;SDS011;7175;51.978;5.330;2023-04-21T09:04:45;24.10;;;22.20;;
14187;SDS011;7175;51.978;5.330;2023-04-21T09:07:30;23.53;;;21.53;;
14187;SDS011;7175;51.978;5.330;2023-04-21T09:09:59;23.13;;;21.33;;
14187;SDS011;7175;51.978;5.330;2023-04-21T09:12:28;23.57;;;21.67;;
14187;SDS011;7175;51.978;5.330;2023-04-21T09:14:57;23.43;;;21.53;;
14187;SDS011;7175;51.978;5.330;2023-04-21T09:17:27;22.43;;;20.63;;
14187;SDS011;7175;51.978;5.330;2023-04-21T09:20:10;22.60;;;20.80;;
14187;SDS011;7175;51.978;5.330;2023-04-21T09:22:42;23.27;;;21.47;;
14187;SDS011;7175;51.978;5.330;2023-04-21T09:25:14;22.10;;;20.40;;
14187;SDS011;7175;51.978;5.330;2023-04-21T09:27:44;22.97;;;21.23;;
14187;SDS011;7175;51.978;5.330;2023-04-21T09:30:13;22.50;;;20.80;;
14187;SDS011;7175;51.978;5.330;2023-04-21T09:32:46;23.17;;;21.27;;
14187;SDS011;7175;51.978;5.330;2023-04-21T09:35:14;22.47;;;20.77;;
14187;SDS011;7175;51.978;5.330;2023-04-21T09:37:44;23.33;;;21.43;;
14187;SDS011;7175;51.978;5.330;2023-04-21T09:40:13;22.13;;;20.43;;
14187;SDS011;7175;51.978;5.330;2023-04-21T09:42:44;23.17;;;21.30;;
14187;SDS011;7175;51.978;5.330;2023-04-21T09:45:13;23.30;;;21.50;;
14187;SDS011;7175;51.978;5.330;2023-04-21T09:48:01;22.27;;;20.57;;
14187;SDS011;7175;51.978;5.330;2023-04-21T09:50:32;23.00;;;21.20;;
14187;SDS011;7175;51.978;5.330;2023-04-21T09:53:22;21.97;;;20.27;;
14187;SDS011;7175;51.978;5.330;2023-04-21T09:55:54;21.90;;;20.20;;
14187;SDS011;7175;51.978;5.330;2023-04-21T09:58:25;21.43;;;19.73;;
14187;SDS011;7175;51.978;5.330;2023-04-21T10:00:56;22.10;;;20.40;;
14187;SDS011;7175;51.978;5.330;2023-04-21T10:03:26;22.60;;;20.80;;
14187;SDS011;7175;51.978;5.330;2023-04-21T10:05:55;21.00;;;19.40;;
14187;SDS011;7175;51.978;5.330;2023-04-21T10:08:25;22.60;;;20.50;;
14187;SDS011;7175;51.978;5.330;2023-04-21T10:10:54;21.73;;;20.03;;
14187;SDS011;7175;51.978;5.330;2023-04-21T10:13:22;20.97;;;19.37;;
14187;SDS011;7175;51.978;5.330;2023-04-21T10:15:59;20.77;;;19.17;;
14187;SDS011;7175;51.978;5.330;2023-04-21T10:18:29;21.40;;;19.80;;
14187;SDS011;7175;51.978;5.330;2023-04-21T10:20:58;20.80;;;19.23;;
14187;SDS011;7175;51.978;5.330;2023-04-21T10:23:31;20.87;;;19.27;;
14187;SDS011;7175;51.978;5.330;2023-04-21T10:26:04;20.97;;;19.37;;
14187;SDS011;7175;51.978;5.330;2023-04-21T10:28:41;20.60;;;19.00;;
14187;SDS011;7175;51.978;5.330;2023-04-21T10:37:13;22.73;;;20.90;;
14187;SDS011;7175;51.978;5.330;2023-04-21T10:39:50;23.30;;;21.23;;
14187;SDS011;7175;51.978;5.330;2023-04-21T10:42:21;23.40;;;21.13;;
14187;SDS011;7175;51.978;5.330;2023-04-21T10:47:41;21.40;;;19.80;;
14187;SDS011;7175;51.978;5.330;2023-04-21T10:50:16;21.03;;;19.43;;
14187;SDS011;7175;51.978;5.330;2023-04-21T10:52:48;22.10;;;20.30;;
14187;SDS011;7175;51.978;5.330;2023-04-21T10:55:35;21.90;;;20.20;;
14187;SDS011;7175;51.978;5.330;2023-04-21T10:58:04;23.13;;;21.20;;
14187;SDS011;7175;51.978;5.330;2023-04-21T11:00:34;21.03;;;19.43;;
14187;SDS011;7175;51.978;5.330;2023-04-21T11:03:05;20.90;;;19.30;;
14187;SDS011;7175;51.978;5.330;2023-04-21T11:05:35;20.77;;;19.17;;
14187;SDS011;7175;51.978;5.330;2023-04-21T11:08:05;20.87;;;19.27;;
14187;SDS011;7175;51.978;5.330;2023-04-21T11:10:52;21.93;;;20.23;;
14187;SDS011;7175;51.978;5.330;2023-04-21T11:13:22;21.17;;;19.57;;
14187;SDS011;7175;51.978;5.330;2023-04-21T11:15:54;20.30;;;18.70;;
14187;SDS011;7175;51.978;5.330;2023-04-21T11:21:08;20.83;;;19.17;;
14187;SDS011;7175;51.978;5.330;2023-04-21T11:23:39;21.87;;;20.23;;
14187;SDS011;7175;51.978;5.330;2023-04-21T11:26:09;22.47;;;19.93;;
14187;SDS011;7175;51.978;5.330;2023-04-21T11:28:39;21.97;;;20.37;;
14187;SDS011;7175;51.978;5.330;2023-04-21T11:31:09;21.70;;;20.10;;
14187;SDS011;7175;51.978;5.330;2023-04-21T11:33:38;21.67;;;19.97;;
14187;SDS011;7175;51.978;5.330;2023-04-21T11:36:06;20.50;;;18.90;;
14187;SDS011;7175;51.978;5.330;2023-04-21T11:38:35;23.17;;;21.23;;
14187;SDS011;7175;51.978;5.330;2023-04-21T11:41:05;22.33;;;20.60;;
14187;SDS011;7175;51.978;5.330;2023-04-21T11:43:36;20.50;;;18.90;;
14187;SDS011;7175;51.978;5.330;2023-04-21T11:46:15;21.77;;;20.07;;
14187;SDS011;7175;51.978;5.330;2023-04-21T11:48:44;22.97;;;21.07;;
14187;SDS011;7175;51.978;5.330;2023-04-21T11:51:15;21.77;;;19.67;;
14187;SDS011;7175;51.978;5.330;2023-04-21T11:53:47;21.03;;;19.33;;
14187;SDS011;7175;51.978;5.330;2023-04-21T11:56:17;21.43;;;19.73;;
14187;SDS011;7175;51.978;5.330;2023-04-21T11:58:49;20.77;;;19.17;;
14187;SDS011;7175;51.978;5.330;2023-04-21T12:01:19;20.67;;;18.97;;
14187;SDS011;7175;51.978;5.330;2023-04-21T12:03:51;22.20;;;20.40;;
14187;SDS011;7175;51.978;5.330;2023-04-21T12:06:21;20.90;;;19.17;;
14187;SDS011;7175;51.978;5.330;2023-04-21T12:08:55;20.60;;;19.00;;
14187;SDS011;7175;51.978;5.330;2023-04-21T12:11:26;21.00;;;19.30;;
14187;SDS011;7175;51.978;5.330;2023-04-21T12:13:57;22.53;;;20.63;;
14187;SDS011;7175;51.978;5.330;2023-04-21T12:16:25;21.03;;;19.30;;
14187;SDS011;7175;51.978;5.330;2023-04-21T12:18:55;20.10;;;18.50;;
14187;SDS011;7175;51.978;5.330;2023-04-21T12:21:27;22.80;;;20.80;;
14187;SDS011;7175;51.978;5.330;2023-04-21T12:23:55;21.37;;;19.47;;
14187;SDS011;7175;51.978;5.330;2023-04-21T12:26:24;20.27;;;18.67;;
14187;SDS011;7175;51.978;5.330;2023-04-21T12:28:53;20.37;;;18.77;;
14187;SDS011;7175;51.978;5.330;2023-04-21T12:31:22;21.13;;;19.43;;
14187;SDS011;7175;51.978;5.330;2023-04-21T12:33:51;21.33;;;19.63;;
14187;SDS011;7175;51.978;5.330;2023-04-21T12:36:19;19.90;;;18.40;;
14187;SDS011;7175;51.978;5.330;2023-04-21T12:38:47;19.70;;;18.10;;
14187;SDS011;7175;51.978;5.330;2023-04-21T12:41:16;21.23;;;19.50;;
14187;SDS011;7175;51.978;5.330;2023-04-21T12:43:44;20.83;;;19.33;;
14187;SDS011;7175;51.978;5.330;2023-04-21T12:46:12;19.80;;;18.30;;
14187;SDS011;7175;51.978;5.330;2023-04-21T12:48:42;20.53;;;18.97;;
14187;SDS011;7175;51.978;5.330;2023-04-21T12:51:10;21.03;;;19.43;;
14187;SDS011;7175;51.978;5.330;2023-04-21T12:53:38;20.00;;;18.50;;
14187;SDS011;7175;51.978;5.330;2023-04-21T12:56:07;19.77;;;18.27;;
14187;SDS011;7175;51.978;5.330;2023-04-21T12:58:35;21.77;;;19.80;;
14187;SDS011;7175;51.978;5.330;2023-04-21T13:01:04;19.47;;;18.07;;
14187;SDS011;7175;51.978;5.330;2023-04-21T13:03:32;20.60;;;19.10;;
14187;SDS011;7175;51.978;5.330;2023-04-21T13:06:02;20.50;;;18.93;;
14187;SDS011;7175;51.978;5.330;2023-04-21T13:08:31;20.10;;;18.60;;
14187;SDS011;7175;51.978;5.330;2023-04-21T13:10:59;21.60;;;19.20;;
14187;SDS011;7175;51.978;5.330;2023-04-21T13:13:27;21.53;;;19.73;;
14187;SDS011;7175;51.978;5.330;2023-04-21T13:15:56;20.80;;;19.00;;
14187;SDS011;7175;51.978;5.330;2023-04-21T13:18:24;22.47;;;20.57;;
14187;SDS011;7175;51.978;5.330;2023-04-21T13:20:52;20.87;;;19.27;;
14187;SDS011;7175;51.978;5.330;2023-04-21T13:23:22;19.93;;;18.43;;
14187;SDS011;7175;51.978;5.330;2023-04-21T13:25:50;20.00;;;18.50;;
14187;SDS011;7175;51.978;5.330;2023-04-21T13:28:18;20.40;;;18.80;;
14187;SDS011;7175;51.978;5.330;2023-04-21T13:30:48;20.33;;;18.73;;
14187;SDS011;7175;51.978;5.330;2023-04-21T13:33:18;21.93;;;20.03;;
14187;SDS011;7175;51.978;5.330;2023-04-21T13:35:46;20.03;;;18.53;;
14187;SDS011;7175;51.978;5.330;2023-04-21T13:38:15;20.00;;;18.50;;
14187;SDS011;7175;51.978;5.330;2023-04-21T13:40:45;21.03;;;19.40;;
14187;SDS011;7175;51.978;5.330;2023-04-21T13:43:14;22.17;;;20.47;;
14187;SDS011;7175;51.978;5.330;2023-04-21T13:45:42;19.87;;;18.27;;
14187;SDS011;7175;51.978;5.330;2023-04-21T13:48:11;21.03;;;19.33;;
14187;SDS011;7175;51.978;5.330;2023-04-21T13:50:39;19.70;;;18.20;;
14187;SDS011;7175;51.978;5.330;2023-04-21T13:53:08;20.40;;;18.80;;
14187;SDS011;7175;51.978;5.330;2023-04-21T13:55:36;19.83;;;18.33;;
14187;SDS011;7175;51.978;5.330;2023-04-21T13:58:06;19.77;;;18.23;;
14187;SDS011;7175;51.978;5.330;2023-04-21T14:00:34;21.07;;;19.50;;
14187;SDS011;7175;51.978;5.330;2023-04-21T14:03:02;21.60;;;19.97;;
14187;SDS011;7175;51.978;5.330;2023-04-21T14:05:31;20.17;;;18.57;;
14187;SDS011;7175;51.978;5.330;2023-04-21T14:08:00;19.93;;;18.20;;
14187;SDS011;7175;51.978;5.330;2023-04-21T14:10:28;20.70;;;18.70;;
14187;SDS011;7175;51.978;5.330;2023-04-21T14:12:56;32.90;;;19.47;;
14187;SDS011;7175;51.978;5.330;2023-04-21T14:15:26;20.07;;;18.57;;
14187;SDS011;7175;51.978;5.330;2023-04-21T14:17:54;21.07;;;19.27;;
14187;SDS011;7175;51.978;5.330;2023-04-21T14:20:23;19.67;;;18.23;;
14187;SDS011;7175;51.978;5.330;2023-04-21T14:22:52;20.10;;;18.60;;
14187;SDS011;7175;51.978;5.330;2023-04-21T14:25:20;18.90;;;17.50;;
14187;SDS011;7175;51.978;5.330;2023-04-21T14:27:48;20.23;;;18.63;;
14187;SDS011;7175;51.978;5.330;2023-04-21T14:30:17;20.60;;;19.10;;
14187;SDS011;7175;51.978;5.330;2023-04-21T14:32:46;21.13;;;19.43;;
14187;SDS011;7175;51.978;5.330;2023-04-21T14:35:15;21.73;;;19.83;;
14187;SDS011;7175;51.978;5.330;2023-04-21T14:37:44;21.07;;;19.37;;
14187;SDS011;7175;51.978;5.330;2023-04-21T14:40:12;21.97;;;20.07;;
14187;SDS011;7175;51.978;5.330;2023-04-21T14:42:40;20.97;;;19.10;;
14187;SDS011;7175;51.978;5.330;2023-04-21T14:45:09;21.07;;;19.27;;
14187;SDS011;7175;51.978;5.330;2023-04-21T14:47:38;20.73;;;19.13;;
14187;SDS011;7175;51.978;5.330;2023-04-21T14:50:08;20.20;;;18.60;;